Time;durP1;ratioP1;P1;durP2;ratioP2;P2;SDS_P1;SDS_P2;PMS_P1;PMS_P2;Temp;Humidity;BMP_temperature;BMP_pressure;BME280_temperature;BME280_humidity;BME280_pressure;Samples;Min_cycle;Max_cycle;Signal;HPM_P1;HPM_P2
2023/10/07 00:00:51;;;;;;;1.67;0.90;;;;;;;34.08;17.88;100903.75;5071837;28;20035;-45
2023/10/07 00:03:21;;;;;;;1.45;0.80;;;;;;;33.92;18.27;100897.44;5071422;28;20078;-44
2023/10/07 00:05:50;;;;;;;2.25;0.93;;;;;;;33.88;17.90;100895.38;5071875;28;20082;-45
2023/10/07 00:08:19;;;;;;;2.25;0.90;;;;;;;33.77;18.25;100891.56;5071699;28;20404;-44
2023/10/07 00:10:49;;;;;;;0.90;0.80;;;;;;;33.76;18.39;100892.75;5071577;28;20107;-44
2023/10/07 00:13:20;;;;;;;1.27;0.70;;;;;;;33.76;18.45;100889.13;5071397;28;20052;-45
2023/10/07 00:15:50;;;;;;;1.50;0.70;;;;;;;33.61;18.14;100890.81;5063879;28;20409;-48
2023/10/07 00:18:18;;;;;;;1.23;0.70;;;;;;;33.55;17.90;100895.03;5051629;28;20043;-44
2023/10/07 00:20:58;;;;;;;2.15;0.90;;;;;;;33.65;18.17;100888.09;5051643;28;20036;-43
2023/10/07 00:23:28;;;;;;;1.48;0.63;;;;;;;33.69;17.29;100886.22;5051477;28;20218;-43
2023/10/07 00:25:56;;;;;;;1.10;0.60;;;;;;;33.77;17.14;100886.03;5051501;28;20029;-44
2023/10/07 00:28:35;;;;;;;1.00;0.90;;;;;;;33.68;17.82;100879.06;5051555;28;20021;-43
2023/10/07 00:31:06;;;;;;;1.38;0.90;;;;;;;33.49;17.82;100886.16;5051360;28;20029;-44
2023/10/07 00:39:07;;;;;;;1.45;0.82;;;;;;;33.49;18.37;100886.16;5055470;28;20401;-44
2023/10/07 00:41:59;;;;;;;1.23;0.68;;;;;;;33.38;18.13;100887.84;5055014;28;20082;-44
2023/10/07 00:44:32;;;;;;;1.98;0.75;;;;;;;33.47;17.33;100879.34;5055432;28;20025;-43
2023/10/07 00:49:50;;;;;;;2.40;0.88;;;;;;;33.23;18.41;100883.91;5055491;28;20117;-44
2023/10/07 00:52:32;;;;;;;0.60;0.60;;;;;;;33.25;17.19;100876.03;5054804;28;20033;-44
2023/10/07 00:55:10;;;;;;;1.50;0.73;;;;;;;33.08;18.04;100887.50;5055199;28;20507;-44
2023/10/07 00:57:37;;;;;;;1.30;0.68;;;;;;;33.37;18.62;100877.91;5054882;28;20029;-43
2023/10/07 01:02:58;;;;;;;0.60;0.55;;;;;;;33.21;19.83;100875.16;5054761;28;20017;-44
2023/10/07 01:05:33;;;;;;;1.88;0.90;;;;;;;32.97;20.65;100884.44;5055044;28;20032;-44
2023/10/07 01:07:59;;;;;;;2.55;0.80;;;;;;;32.85;20.25;100879.75;5055108;28;20029;-43
2023/10/07 01:10:31;;;;;;;0.93;0.88;;;;;;;32.90;20.50;100880.69;5055047;28;20036;-44
2023/10/07 01:13:03;;;;;;;1.35;1.17;;;;;;;32.99;20.26;100884.09;5054643;28;20025;-44
2023/10/07 01:15:30;;;;;;;2.58;1.10;;;;;;;32.95;20.74;100883.19;5054261;28;20029;-44
2023/10/07 01:18:03;;;;;;;2.90;1.30;;;;;;;32.61;21.44;100884.66;5054665;28;20021;-46
2023/10/07 01:23:19;;;;;;;2.08;1.40;;;;;;;32.33;25.38;100886.25;5054422;28;20040;-44
2023/10/07 01:25:50;;;;;;;4.97;1.50;;;;;;;32.02;26.92;100897.19;5054548;28;20033;-44
2023/10/07 01:28:20;;;;;;;3.78;1.45;;;;;;;31.79;27.16;100899.63;5054458;28;20442;-43
2023/10/07 01:31:07;;;;;;;3.38;1.35;;;;;;;31.50;27.73;100895.97;5054346;28;20386;-45
2023/10/07 01:33:46;;;;;;;1.25;1.02;;;;;;;31.35;26.94;100888.34;5054223;28;20104;-44
2023/10/07 01:36:19;;;;;;;1.58;1.05;;;;;;;31.22;27.18;100901.34;5054708;28;20036;-44
2023/10/07 01:38:52;;;;;;;2.45;0.93;;;;;;;31.08;27.73;100892.56;5054132;28;20041;-44
2023/10/07 01:41:20;;;;;;;1.38;1.00;;;;;;;30.81;27.76;100894.00;5053909;28;20049;-44
2023/10/07 01:44:00;;;;;;;1.10;1.00;;;;;;;30.74;27.41;100896.50;5068004;28;20029;-43
2023/10/07 01:46:27;;;;;;;2.47;1.10;;;;;;;30.67;26.78;100897.03;5054282;28;20100;-45
2023/10/07 01:49:00;;;;;;;2.50;1.17;;;;;;;30.37;27.21;100890.84;5053979;28;20428;-44
2023/10/07 01:51:29;;;;;;;2.40;1.08;;;;;;;30.58;27.05;100895.50;5053736;28;20086;-45
2023/10/07 01:54:08;;;;;;;1.42;1.02;;;;;;;30.46;26.38;100891.53;5053884;28;20033;-44
2023/10/07 01:56:37;;;;;;;1.70;0.93;;;;;;;30.24;27.28;100887.19;5053974;28;20474;-45
2023/10/07 01:59:17;;;;;;;1.35;1.00;;;;;;;30.00;28.04;100894.50;5053906;28;20056;-43
2023/10/07 02:01:58;;;;;;;1.10;0.88;;;;;;;29.74;29.38;100901.00;5053449;28;20052;-43
2023/10/07 02:04:28;;;;;;;1.75;0.88;;;;;;;29.54;29.66;100887.97;5053815;28;20078;-44
2023/10/07 02:06:56;;;;;;;2.50;1.05;;;;;;;29.49;30.12;100897.22;5053650;28;20469;-43
2023/10/07 02:09:26;;;;;;;1.25;1.00;;;;;;;29.24;30.40;100893.44;5053610;28;20017;-45
2023/10/07 02:12:00;;;;;;;3.85;1.40;;;;;;;29.01;30.97;100905.84;5053348;28;20052;-44
2023/10/07 02:14:27;;;;;;;;;;;;;;;28.94;30.85;100906.38;5054133;28;20028;-43
2023/10/07 02:16:59;;;;;;;2.25;1.58;;;;;;;28.84;31.00;100901.97;5053844;28;20011;-42
2023/10/07 02:19:41;;;;;;;3.17;1.40;;;;;;;28.72;30.15;100907.34;5053347;28;20029;-43
2023/10/07 02:22:08;;;;;;;1.50;1.30;;;;;;;28.76;30.51;100910.25;5053212;28;20025;-44
2023/10/07 02:24:38;;;;;;;2.78;1.70;;;;;;;28.64;30.33;100908.97;5053296;28;20524;-44
2023/10/07 02:27:16;;;;;;;1.35;1.25;;;;;;;28.47;30.67;100913.69;5053731;28;20075;-44
2023/10/07 02:29:44;;;;;;;2.10;1.35;;;;;;;28.22;31.02;100923.53;5053220;28;20103;-45
2023/10/07 02:32:17;;;;;;;2.15;1.35;;;;;;;28.33;31.04;100917.41;5052963;28;20048;-45
2023/10/07 02:34:51;;;;;;;2.47;1.40;;;;;;;27.86;30.58;100922.66;5053115;28;20040;-44
2023/10/07 02:37:38;;;;;;;1.60;1.20;;;;;;;28.02;30.52;100925.78;5053023;28;20041;-45
2023/10/07 02:40:35;;;;;;;1.75;1.58;;;;;;;27.89;30.33;100921.22;5053196;28;20110;-44
2023/10/07 02:43:07;;;;;;;2.20;1.30;;;;;;;27.75;30.79;100926.84;5053210;28;20064;-45
2023/10/07 02:45:42;;;;;;;1.50;1.25;;;;;;;27.74;31.28;100919.72;5052850;28;20080;-42
2023/10/07 02:48:11;;;;;;;1.52;1.02;;;;;;;27.59;31.73;100922.88;5072105;28;20123;-44
2023/10/07 02:50:44;;;;;;;2.10;1.08;;;;;;;27.53;30.28;100919.47;5072851;28;20028;-43
2023/10/07 02:53:19;;;;;;;2.13;1.33;;;;;;;27.44;30.66;100915.09;5072438;28;20021;-44
2023/10/07 02:55:54;;;;;;;1.70;1.25;;;;;;;27.50;31.48;100919.31;5072296;28;20079;-43
2023/10/07 02:58:32;;;;;;;3.80;1.60;;;;;;;27.30;31.12;100917.91;5072757;28;20028;-43
2023/10/07 03:01:11;;;;;;;2.75;1.40;;;;;;;27.18;32.01;100924.00;5072383;28;20028;-43
2023/10/07 03:03:41;;;;;;;1.88;1.40;;;;;;;27.13;30.63;100913.16;5072565;28;20033;-44
2023/10/07 03:06:08;;;;;;;1.98;1.23;;;;;;;27.27;30.65;100916.63;5072676;28;20031;-43
2023/10/07 03:09:18;;;;;;;1.23;1.13;;;;;;;27.04;31.13;100924.09;5072573;28;20518;-43
2023/10/07 03:11:40;;;;;;;2.67;1.30;;;;;;;26.73;32.88;100925.97;5071046;28;20416;-43
2023/10/07 03:14:12;;;;;;;3.45;1.38;;;;;;;26.85;31.43;100934.44;5072458;28;20038;-44
2023/10/07 03:16:48;;;;;;;1.30;0.95;;;;;;;26.79;32.03;100928.28;5057170;28;20473;-43
2023/10/07 03:19:20;;;;;;;1.95;0.93;;;;;;;26.82;31.69;100927.66;5052703;28;20025;-42
2023/10/07 03:24:29;;;;;;;2.55;1.17;;;;;;;26.83;32.05;100928.47;5052294;28;20052;-44
2023/10/07 03:27:11;;;;;;;2.85;1.38;;;;;;;26.69;32.28;100928.53;5052371;28;20025;-44
2023/10/07 03:29:39;;;;;;;4.40;1.33;;;;;;;26.76;32.10;100930.81;5052364;28;20056;-45
2023/10/07 03:32:12;;;;;;;1.65;1.20;;;;;;;26.73;32.01;100932.28;5052322;28;20057;-43
2023/10/07 03:34:45;;;;;;;3.63;1.10;;;;;;;26.44;32.19;100945.63;5052420;28;20025;-42
2023/10/07 03:42:44;;;;;;;3.00;1.15;;;;;;;26.53;32.59;100957.47;5009889;28;20058;-43
2023/10/07 03:45:14;;;;;;;1.58;0.90;;;;;;;26.39;32.81;100956.69;5009840;28;20127;-45
2023/10/07 03:47:42;;;;;;;1.73;1.08;;;;;;;26.32;33.09;100952.44;5030913;28;20111;-43
2023/10/07 03:50:24;;;;;;;2.35;1.10;;;;;;;26.49;32.29;100954.53;5051745;28;20048;-43
2023/10/07 03:52:51;;;;;;;3.20;0.80;;;;;;;26.36;32.01;100958.09;5051414;28;20536;-43
2023/10/07 03:55:17;;;;;;;1.77;1.00;;;;;;;26.37;32.62;100956.97;5051684;28;20059;-42
2023/10/07 03:57:43;;;;;;;2.17;1.02;;;;;;;26.06;33.03;100960.41;5051513;28;20033;-42
2023/10/07 04:00:11;;;;;;;1.48;1.10;;;;;;;26.24;31.92;100958.63;5051712;28;20045;-43
2023/10/07 04:02:41;;;;;;;2.72;1.30;;;;;;;25.98;32.55;100965.78;5051502;28;20043;-42
2023/10/07 04:05:12;;;;;;;3.45;1.40;;;;;;;25.66;33.37;100962.03;5050712;28;20114;-43
2023/10/07 04:07:42;;;;;;;2.58;1.35;;;;;;;25.66;33.32;100962.03;5051348;28;20520;-42
2023/10/07 04:10:54;;;;;;;3.53;1.60;;;;;;;25.69;33.35;100960.59;5051578;28;20052;-43
2023/10/07 04:12:58;;;;;;;2.90;1.30;;;;;;;25.65;33.31;100963.16;5048431;28;20033;-43
2023/10/07 04:15:34;;;;;;;1.45;1.17;;;;;;;25.73;33.38;100964.34;5051362;28;20027;-44
2023/10/07 04:18:01;;;;;;;2.63;1.60;;;;;;;25.54;33.37;100965.28;5051625;28;20043;-43
2023/10/07 04:20:50;;;;;;;2.05;1.30;;;;;;;25.36;33.90;100968.06;5052029;28;20025;-45
2023/10/07 04:23:21;;;;;;;1.10;1.00;;;;;;;25.33;34.01;100963.22;5051548;28;20025;-46
2023/10/07 04:25:47;;;;;;;1.42;1.27;;;;;;;25.39;34.24;100964.75;5051357;28;20033;-43
2023/10/07 04:28:14;;;;;;;2.97;1.30;;;;;;;25.35;34.41;100958.25;5051852;28;20033;-44
2023/10/07 04:30:40;;;;;;;1.98;1.23;;;;;;;25.24;34.53;100954.88;5051522;28;20025;-44
2023/10/07 04:33:08;;;;;;;2.33;0.82;;;;;;;25.29;34.88;100954.78;5051618;28;20029;-45
2023/10/07 04:35:35;;;;;;;1.27;1.02;;;;;;;25.07;35.04;100944.47;5051404;28;20035;-44
2023/10/07 04:46:22;;;;;;;2.13;1.10;;;;;;;24.81;36.35;100952.28;5051568;28;20078;-44
2023/10/07 04:48:55;;;;;;;3.13;1.42;;;;;;;24.76;36.61;100952.34;5051382;28;20060;-44
2023/10/07 04:54:02;;;;;;;1.60;1.08;;;;;;;24.49;36.37;100953.88;5051166;28;20017;-43
2023/10/07 04:56:33;;;;;;;2.05;1.05;;;;;;;24.68;36.07;100953.03;5051222;28;20041;-43
2023/10/07 04:59:06;;;;;;;2.45;1.40;;;;;;;24.44;36.73;100958.63;5051396;28;20029;-44
2023/10/07 05:01:33;;;;;;;1.20;1.10;;;;;;;24.33;37.34;100957.91;5051129;28;20040;-43
2023/10/07 05:04:04;;;;;;;2.20;1.38;;;;;;;24.29;37.36;100945.94;5049868;28;20071;-43
2023/10/07 05:06:35;;;;;;;3.42;1.65;;;;;;;24.22;37.91;100964.63;5051373;28;20102;-45
2023/10/07 05:09:18;;;;;;;2.33;1.33;;;;;;;24.08;38.04;100952.78;5051699;28;20037;-44
2023/10/07 05:11:46;;;;;;;1.70;1.50;;;;;;;24.09;38.24;100963.41;5050776;28;20037;-44
2023/10/07 05:14:17;;;;;;;1.38;1.20;;;;;;;23.94;38.92;100969.09;5056551;23;20053;-44
2023/10/07 05:16:48;;;;;;;1.55;1.30;;;;;;;23.89;39.04;100963.69;5035368;28;20025;-46
2023/10/07 05:19:27;;;;;;;1.45;1.30;;;;;;;23.83;39.62;100971.16;5034622;28;20017;-44
2023/10/07 05:22:05;;;;;;;1.20;1.10;;;;;;;23.69;39.61;100970.19;5034694;28;20436;-44
2023/10/07 05:24:32;;;;;;;1.75;1.40;;;;;;;23.63;39.73;100963.97;5034722;28;20474;-43
2023/10/07 05:26:59;;;;;;;1.85;1.52;;;;;;;23.60;39.80;100961.00;5034496;28;20434;-43
2023/10/07 05:29:27;;;;;;;1.90;1.20;;;;;;;23.51;39.44;100962.72;5034538;28;20021;-45
2023/10/07 05:31:53;;;;;;;2.70;1.92;;;;;;;23.42;38.04;100957.06;5034086;28;20029;-43
2023/10/07 05:34:19;;;;;;;3.20;2.90;;;;;;;23.37;37.63;100959.84;5034581;28;20030;-45
2023/10/07 05:36:46;;;;;;;4.80;3.30;;;;;;;23.33;37.70;100956.09;5034318;28;20093;-42
2023/10/07 05:39:15;;;;;;;3.50;3.20;;;;;;;23.33;38.29;100951.44;5034236;28;20091;-42
2023/10/07 05:41:42;;;;;;;3.38;2.92;;;;;;;23.21;38.16;100953.75;5033782;28;20506;-43
2023/10/07 05:44:14;;;;;;;2.55;2.35;;;;;;;23.29;37.01;100949.56;5034379;28;20021;-42
2023/10/07 05:46:42;;;;;;;2.47;2.20;;;;;;;23.11;37.38;100951.13;5043765;28;20033;-47
2023/10/07 05:49:10;;;;;;;2.20;2.00;;;;;;;23.13;37.68;100948.91;5054251;28;20029;-43
2023/10/07 05:51:37;;;;;;;2.35;2.00;;;;;;;23.05;37.63;100950.34;5053494;28;20025;-44
2023/10/07 05:54:05;;;;;;;3.25;2.15;;;;;;;23.02;38.71;100945.44;5054398;28;20082;-44
2023/10/07 05:56:31;;;;;;;2.88;1.60;;;;;;;23.31;37.33;100953.63;5054257;28;20021;-45
2023/10/07 05:58:57;;;;;;;1.92;1.65;;;;;;;22.98;38.08;100954.47;5054075;28;20430;-44
2023/10/07 06:01:24;;;;;;;3.60;1.52;;;;;;;22.90;38.31;100953.19;5052751;28;20490;-43
2023/10/07 06:03:52;;;;;;;1.77;1.27;;;;;;;22.74;38.34;100954.38;5053965;28;20062;-43
2023/10/07 06:06:20;;;;;;;3.03;1.50;;;;;;;22.82;38.96;100951.88;5054057;28;20025;-45
2023/10/07 06:08:47;;;;;;;1.95;1.33;;;;;;;22.64;38.78;100958.81;5053678;28;20504;-44
2023/10/07 06:11:15;;;;;;;2.90;1.50;;;;;;;22.57;38.43;100960.22;5053336;28;20393;-44
2023/10/07 06:13:41;;;;;;;1.52;1.40;;;;;;;22.51;38.58;100959.44;5053482;28;20401;-42
2023/10/07 06:16:08;;;;;;;2.20;1.48;;;;;;;22.48;38.75;100954.53;5042509;28;20029;-45
2023/10/07 06:18:34;;;;;;;2.83;1.75;;;;;;;22.40;40.04;100953.25;5033847;28;20415;-45
2023/10/07 06:24:04;;;;;;;1.83;1.27;;;;;;;22.33;39.87;100960.94;5010689;28;20135;-43
2023/10/07 06:26:31;;;;;;;3.17;1.85;;;;;;;22.21;40.13;100956.88;5033344;28;20029;-46
2023/10/07 06:29:05;;;;;;;2.50;1.35;;;;;;;22.16;40.59;100956.94;5032608;28;20115;-44
2023/10/07 06:31:32;;;;;;;2.53;1.30;;;;;;;22.05;41.14;100958.88;5033095;28;20041;-43
2023/10/07 06:34:14;;;;;;;3.20;1.58;;;;;;;21.98;40.52;100958.34;5033164;28;20029;-44
2023/10/07 06:36:41;;;;;;;2.10;1.15;;;;;;;21.85;39.91;100952.41;5033113;28;20103;-43
2023/10/07 06:39:10;;;;;;;1.83;1.30;;;;;;;21.90;40.49;100958.94;5033145;28;20028;-43
2023/10/07 06:41:38;;;;;;;1.95;1.50;;;;;;;21.80;40.55;100949.69;5032939;28;20030;-42
2023/10/07 06:44:08;;;;;;;1.65;1.20;;;;;;;21.88;40.96;100954.56;5032902;28;20064;-42
2023/10/07 06:46:41;;;;;;;3.33;0.98;;;;;;;21.75;40.32;100954.34;5032807;28;20627;-45
2023/10/07 06:49:18;;;;;;;1.25;0.90;;;;;;;21.68;40.29;100953.81;5033110;28;20037;-43
2023/10/07 06:51:54;;;;;;;1.58;1.10;;;;;;;21.63;39.81;100954.66;5032662;28;20030;-42
2023/10/07 06:54:22;;;;;;;1.85;1.00;;;;;;;21.65;40.34;100952.44;5032604;28;20036;-42
2023/10/07 06:56:54;;;;;;;1.83;0.90;;;;;;;21.72;40.66;100950.28;5032889;28;20025;-43
2023/10/07 06:59:27;;;;;;;1.92;0.80;;;;;;;21.59;40.47;100951.66;5032781;28;20021;-43
2023/10/07 07:01:55;;;;;;;1.77;0.90;;;;;;;21.50;40.05;100944.34;5032605;28;20034;-44
2023/10/07 07:04:23;;;;;;;1.00;0.88;;;;;;;21.46;40.84;100945.97;5032950;28;20021;-43
2023/10/07 07:07:10;;;;;;;1.77;1.17;;;;;;;21.41;41.16;100949.53;5032807;28;20108;-44
2023/10/07 07:12:21;;;;;;;2.03;1.08;;;;;;;21.35;41.17;100939.75;5032457;28;20037;-43
2023/10/07 07:14:56;;;;;;;1.83;0.82;;;;;;;21.32;41.43;100949.28;5032343;28;20045;-43
2023/10/07 07:20:32;;;;;;;1.58;1.00;;;;;;;21.21;40.90;100944.06;5027524;28;19913;-42
2023/10/07 07:22:58;;;;;;;1.70;1.00;;;;;;;21.18;41.07;100942.72;5032331;28;20040;-42
2023/10/07 07:27:58;;;;;;;1.17;1.05;;;;;;;21.03;41.24;100942.75;5032395;28;20379;-43
2023/10/07 07:30:30;;;;;;;2.03;1.05;;;;;;;21.04;41.26;100941.66;5032192;28;20101;-43
2023/10/07 07:33:07;;;;;;;2.28;1.30;;;;;;;21.08;41.74;100951.72;5032313;28;20041;-45
2023/10/07 07:35:39;;;;;;;1.33;1.23;;;;;;;20.96;42.09;100943.03;5032273;28;20022;-43
2023/10/07 07:40:45;;;;;;;4.18;1.35;;;;;;;20.99;44.55;100947.94;5032049;28;20033;-43
2023/10/07 07:43:13;;;;;;;3.33;1.10;;;;;;;21.03;44.87;100945.47;5030545;28;20398;-43
2023/10/07 07:45:41;;;;;;;1.85;1.25;;;;;;;21.05;45.68;100951.47;5035328;28;20029;-43
2023/10/07 07:48:07;;;;;;;2.13;1.27;;;;;;;20.77;46.13;100939.22;5051872;28;20389;-43
2023/10/07 07:50:43;;;;;;;1.23;1.10;;;;;;;20.92;46.32;100936.47;5051421;28;20025;-43
2023/10/07 07:53:11;;;;;;;1.42;0.95;;;;;;;20.87;47.13;100949.28;5051951;28;20412;-44
2023/10/07 07:55:43;;;;;;;1.00;0.90;;;;;;;20.65;47.14;100946.81;5051763;28;20021;-44
2023/10/07 07:58:10;;;;;;;1.95;1.20;;;;;;;20.72;47.29;100948.19;5051810;28;20113;-43
2023/10/07 08:00:44;;;;;;;2.38;1.10;;;;;;;20.51;47.97;100950.06;5051699;28;20029;-44
2023/10/07 08:03:16;;;;;;;1.60;1.00;;;;;;;20.53;48.18;100947.06;5051657;28;20044;-43
2023/10/07 08:05:42;;;;;;;1.02;0.93;;;;;;;20.62;48.06;100945.47;5051798;28;20103;-43
2023/10/07 08:08:18;;;;;;;1.27;1.00;;;;;;;20.49;48.18;100941.38;5051699;28;20025;-43
2023/10/07 08:10:48;;;;;;;2.58;0.93;;;;;;;20.40;48.32;100947.56;5051644;28;20063;-43
2023/10/07 08:13:20;;;;;;;1.40;1.10;;;;;;;20.39;48.69;100948.66;5051177;28;20116;-43
2023/10/07 08:15:48;;;;;;;1.40;1.25;;;;;;;20.42;48.90;100953.53;5043412;28;20037;-44
2023/10/07 08:18:15;;;;;;;1.20;0.98;;;;;;;20.34;48.82;100951.38;5031320;28;20482;-43
2023/10/07 08:20:44;;;;;;;1.55;1.15;;;;;;;20.11;49.53;100952.66;5031400;28;20025;-43
2023/10/07 08:23:35;;;;;;;1.38;1.15;;;;;;;20.10;49.63;100957.28;5031548;28;20041;-45
2023/10/07 08:26:13;;;;;;;1.88;1.10;;;;;;;20.07;49.79;100954.28;5031744;28;20033;-43
2023/10/07 08:28:43;;;;;;;1.60;1.17;;;;;;;20.10;50.04;100960.00;5031626;28;20060;-43
2023/10/07 08:31:20;;;;;;;2.42;1.10;;;;;;;20.09;50.22;100957.53;5029986;28;20474;-43
2023/10/07 08:34:10;;;;;;;1.00;0.88;;;;;;;19.98;50.13;100954.75;5031581;28;20441;-44
2023/10/07 08:36:36;;;;;;;2.75;1.00;;;;;;;20.08;50.18;100954.00;5031137;28;20037;-42
2023/10/07 08:39:09;;;;;;;1.33;1.00;;;;;;;19.94;50.47;100958.31;5031414;28;20444;-44
2023/10/07 08:41:47;;;;;;;1.55;0.90;;;;;;;19.97;50.64;100945.00;5031236;28;20462;-43
2023/10/07 08:44:15;;;;;;;2.38;0.95;;;;;;;19.72;51.07;100953.84;5031247;28;20034;-43
2023/10/07 08:46:54;;;;;;;1.30;0.98;;;;;;;19.68;51.13;100954.63;5031444;28;20482;-46
2023/10/07 08:49:25;;;;;;;1.83;0.90;;;;;;;19.53;51.60;100966.19;5031613;28;20037;-43
2023/10/07 08:51:54;;;;;;;4.40;1.10;;;;;;;19.49;51.52;100967.81;5030981;28;20033;-43
2023/10/07 08:54:31;;;;;;;1.33;0.75;;;;;;;19.49;51.66;100963.22;5035213;28;20032;-44
2023/10/07 08:57:06;;;;;;;1.77;1.00;;;;;;;19.40;52.36;100969.38;5035279;28;20029;-43
2023/10/07 08:59:32;;;;;;;1.02;0.85;;;;;;;19.35;51.55;100966.63;5035568;28;20037;-43
2023/10/07 09:02:00;;;;;;;1.60;1.20;;;;;;;19.30;50.44;100963.88;5034917;28;20034;-44
2023/10/07 09:04:36;;;;;;;1.20;0.93;;;;;;;19.29;49.67;100962.25;5034683;28;20034;-43
2023/10/07 09:07:08;;;;;;;1.98;0.73;;;;;;;19.25;49.85;100970.09;5035161;28;20025;-42
2023/10/07 09:09:39;;;;;;;1.20;0.90;;;;;;;19.22;49.72;100963.28;5035078;28;20022;-43
2023/10/07 09:12:29;;;;;;;1.15;1.05;;;;;;;19.17;50.10;100965.97;5034587;28;20410;-44
2023/10/07 09:15:00;;;;;;;1.17;0.90;;;;;;;19.15;49.38;100968.09;5062573;23;20413;-44
2023/10/07 09:17:26;;;;;;;0.95;0.85;;;;;;;19.15;49.79;100967.28;5054812;28;20108;-43
2023/10/07 09:19:57;;;;;;;1.30;0.90;;;;;;;19.12;49.72;100974.06;5054625;28;20032;-44
2023/10/07 09:22:35;;;;;;;1.40;0.98;;;;;;;19.05;50.12;100969.94;5054368;28;20031;-43
2023/10/07 09:25:17;;;;;;;0.98;0.73;;;;;;;19.02;50.02;100968.56;5054449;28;20029;-43
2023/10/07 09:27:54;;;;;;;1.48;1.10;;;;;;;18.96;50.28;100969.59;5054835;28;20134;-45
2023/10/07 09:30:35;;;;;;;1.85;0.90;;;;;;;18.96;50.08;100975.00;5054122;28;20086;-43
2023/10/07 09:33:17;;;;;;;2.13;1.00;;;;;;;18.90;50.35;100971.44;5054384;28;20033;-42
2023/10/07 09:41:44;;;;;;;1.10;0.70;;;;;;;18.84;50.18;100961.63;5012040;28;20071;-42
2023/10/07 09:44:28;;;;;;;0.95;0.88;;;;;;;18.79;49.74;100969.72;5037862;28;20041;-43
2023/10/07 09:46:55;;;;;;;0.70;0.65;;;;;;;18.77;49.61;100960.19;5069563;28;20036;-43
2023/10/07 09:49:25;;;;;;;0.63;0.63;;;;;;;18.78;49.66;100969.97;5074067;28;20040;-43
2023/10/07 09:52:02;;;;;;;1.10;0.90;;;;;;;18.78;49.98;100967.28;5074150;28;20093;-43
2023/10/07 09:54:36;;;;;;;0.85;0.80;;;;;;;18.72;50.04;100964.50;5074133;28;20024;-43
2023/10/07 09:57:19;;;;;;;0.80;0.75;;;;;;;18.66;50.34;100964.69;5073964;28;20440;-44
2023/10/07 10:00:00;;;;;;;2.65;1.10;;;;;;;18.59;50.33;100967.59;5073992;28;20119;-42
2023/10/07 10:02:48;;;;;;;1.00;0.80;;;;;;;18.55;50.58;100957.53;5073672;28;20024;-43
2023/10/07 10:05:41;;;;;;;1.55;0.60;;;;;;;18.44;50.76;100953.91;5072655;28;20485;-43
2023/10/07 10:08:27;;;;;;;0.60;0.60;;;;;;;18.43;50.78;100946.81;5073651;28;20499;-43
2023/10/07 10:10:58;;;;;;;1.00;0.90;;;;;;;18.33;50.77;100954.88;5073452;28;20388;-43
2023/10/07 10:13:29;;;;;;;1.10;0.70;;;;;;;18.30;51.16;100956.19;5073702;28;20024;-42
2023/10/07 10:16:00;;;;;;;1.27;0.70;;;;;;;18.22;51.31;100951.22;5064058;28;20041;-42
2023/10/07 10:18:36;;;;;;;1.48;0.80;;;;;;;18.19;51.54;100949.81;5053591;28;20094;-42
2023/10/07 10:21:09;;;;;;;1.33;0.80;;;;;;;18.16;51.70;100955.78;5053208;28;20056;-42
2023/10/07 10:23:37;;;;;;;0.73;0.60;;;;;;;18.10;51.80;100956.78;5053312;28;20037;-42
2023/10/07 10:26:14;;;;;;;0.88;0.80;;;;;;;18.10;51.45;100950.53;5053540;28;20043;-43
2023/10/07 10:28:59;;;;;;;1.55;1.08;;;;;;;18.05;51.92;100947.78;5053458;28;20021;-43
2023/10/07 10:31:34;;;;;;;1.00;0.88;;;;;;;18.04;51.47;100956.94;5053038;28;20074;-43
2023/10/07 10:34:05;;;;;;;1.02;0.80;;;;;;;18.05;51.28;100947.78;5053140;28;20028;-43
2023/10/07 10:36:48;;;;;;;0.75;0.70;;;;;;;17.99;51.34;100955.03;5053346;28;20435;-42
2023/10/07 10:39:33;;;;;;;0.80;0.70;;;;;;;17.99;51.35;100949.59;5053435;28;20103;-43
2023/10/07 10:42:09;;;;;;;1.08;0.70;;;;;;;18.01;50.76;100950.16;5052846;28;20043;-42
2023/10/07 10:44:40;;;;;;;1.48;0.68;;;;;;;17.99;50.95;100955.03;5052989;28;20105;-43
2023/10/07 10:47:09;;;;;;;0.73;0.63;;;;;;;18.02;50.47;100959.09;5052870;28;20398;-43
2023/10/07 10:49:35;;;;;;;1.63;0.60;;;;;;;18.00;50.66;100953.13;5053015;28;20024;-42
2023/10/07 10:52:02;;;;;;;0.90;0.55;;;;;;;17.97;50.81;100954.44;5052286;28;20158;-43
2023/10/07 10:54:29;;;;;;;0.82;0.75;;;;;;;17.95;50.83;100962.00;5052760;28;20025;-45
2023/10/07 10:57:00;;;;;;;0.70;0.70;;;;;;;17.93;50.62;100950.59;5053058;28;20035;-44
2023/10/07 10:59:48;;;;;;;0.90;0.73;;;;;;;17.91;50.77;100947.31;5052864;28;20508;-42
2023/10/07 11:02:17;;;;;;;1.27;0.88;;;;;;;17.93;50.68;100945.16;5052356;28;20025;-43
2023/10/07 11:04:54;;;;;;;1.55;0.80;;;;;;;18.04;51.30;100946.13;5052672;28;20051;-42
2023/10/07 11:07:23;;;;;;;1.35;1.00;;;;;;;17.99;51.16;100955.03;5052678;28;20031;-44
2023/10/07 11:09:51;;;;;;;1.13;1.00;;;;;;;17.98;51.68;100949.84;5052660;28;20605;-44
2023/10/07 11:12:18;;;;;;;1.33;1.00;;;;;;;17.94;51.89;100949.53;5051958;28;20382;-43
2023/10/07 11:14:49;;;;;;;0.93;0.88;;;;;;;17.92;51.79;100951.66;5052222;28;20048;-45
2023/10/07 11:17:18;;;;;;;1.15;0.88;;;;;;;17.96;52.40;100954.69;5052541;28;20363;-42
2023/10/07 11:19:51;;;;;;;3.22;0.90;;;;;;;17.90;51.34;100957.34;5052281;28;20017;-43
2023/10/07 11:22:21;;;;;;;1.10;0.77;;;;;;;17.91;50.96;100956.25;5052180;28;20563;-43
2023/10/07 11:24:50;;;;;;;1.08;0.77;;;;;;;17.94;50.44;100963.09;5052220;28;20028;-44
2023/10/07 11:27:17;;;;;;;0.82;0.60;;;;;;;17.90;50.71;100951.09;5052029;28;20032;-44
2023/10/07 11:29:44;;;;;;;0.73;0.50;;;;;;;17.87;51.01;100957.00;5052108;28;20040;-42
2023/10/07 11:32:12;;;;;;;0.90;0.73;;;;;;;17.89;51.05;100952.19;5051550;28;20025;-44
2023/10/07 11:34:45;;;;;;;0.80;0.50;;;;;;;17.82;51.54;100955.09;5052451;28;20032;-46
2023/10/07 11:37:13;;;;;;;1.27;0.60;;;;;;;17.85;51.53;100953.75;5051964;28;20469;-44
2023/10/07 11:39:47;;;;;;;0.82;0.73;;;;;;;17.76;51.57;100957.94;5052028;28;20040;-43
2023/10/07 11:42:22;;;;;;;1.15;0.77;;;;;;;17.74;51.79;100963.63;5051611;28;20031;-45
2023/10/07 11:44:56;;;;;;;1.85;1.20;;;;;;;17.73;52.47;100959.28;5051649;28;20087;-44
2023/10/07 11:47:26;;;;;;;1.85;1.38;;;;;;;17.67;52.77;100961.06;5071232;28;20020;-43
2023/10/07 11:49:53;;;;;;;1.17;1.08;;;;;;;17.56;53.23;100962.00;5070339;28;20397;-42
2023/10/07 11:57:32;;;;;;;1.35;1.00;;;;;;;17.37;54.56;100966.84;5106629;23;20533;-50
2023/10/07 11:59:59;;;;;;;2.03;1.20;;;;;;;17.37;54.71;100953.31;4992866;28;20022;-48
2023/10/07 12:02:25;;;;;;;2.45;1.60;;;;;;;17.40;54.99;100962.84;4992261;28;20473;-51
2023/10/07 12:04:52;;;;;;;2.10;1.15;;;;;;;17.33;55.29;100954.09;4992366;28;20109;-50
2023/10/07 12:07:19;;;;;;;2.58;1.52;;;;;;;17.30;55.35;100958.09;4992579;28;20486;-48
2023/10/07 12:09:50;;;;;;;2.55;1.27;;;;;;;17.37;56.32;100960.63;4992721;28;20030;-49
2023/10/07 12:12:17;;;;;;;1.35;0.98;;;;;;;17.29;56.40;100956.47;4992064;28;20038;-47
2023/10/07 12:14:43;;;;;;;1.98;1.25;;;;;;;17.30;56.63;100960.00;4992589;28;20076;-50
2023/10/07 12:17:11;;;;;;;1.75;1.13;;;;;;;17.19;56.89;100960.91;4992402;28;20110;-51
2023/10/07 12:19:37;;;;;;;1.70;1.10;;;;;;;17.21;57.17;100954.16;4992413;28;20034;-48
2023/10/07 12:22:05;;;;;;;1.65;1.10;;;;;;;17.18;57.35;100954.66;4992332;28;20030;-50
2023/10/07 12:24:36;;;;;;;1.25;1.15;;;;;;;17.19;57.56;100955.50;4992260;28;20034;-48
2023/10/07 12:27:03;;;;;;;2.28;1.25;;;;;;;17.21;57.95;100962.28;4992624;28;20026;-48
2023/10/07 12:29:29;;;;;;;1.25;1.08;;;;;;;17.18;57.99;100956.56;4996367;28;20441;-51
2023/10/07 12:31:57;;;;;;;1.30;1.02;;;;;;;17.41;57.66;100964.47;4996338;28;20030;-48
2023/10/07 12:34:24;;;;;;;4.90;1.13;;;;;;;17.29;57.75;100961.88;4996201;28;20022;-49
2023/10/07 12:36:53;;;;;;;1.98;1.05;;;;;;;17.12;58.02;100964.59;4996604;28;20081;-48
2023/10/07 12:39:21;;;;;;;1.02;0.93;;;;;;;17.02;58.23;100967.13;4995998;28;20062;-47
2023/10/07 12:41:48;;;;;;;4.60;1.92;;;;;;;16.97;58.66;100968.94;4996021;28;20397;-48
2023/10/07 12:44:16;;;;;;;7.25;6.65;;;;;;;16.97;58.41;100968.94;4995847;28;20102;-48